Time;durP1;ratioP1;P1;durP2;ratioP2;P2;SDS_P1;SDS_P2;PMS_P1;PMS_P2;Temp;Humidity;BMP_temperature;BMP_pressure;BME280_temperature;BME280_humidity;BME280_pressure;Samples;Min_cycle;Max_cycle;Signal;HPM_P1;HPM_P2
2020/12/24 00:00:01;;;;;;;10.18;1.73;;;9.70;99.90;;;;;;5089350;28;20524;-62
2020/12/24 00:02:27;;;;;;;12.60;3.10;;;9.60;99.90;;;;;;5093336;28;20023;-62
2020/12/24 00:04:52;;;;;;;15.45;1.65;;;9.60;99.90;;;;;;5093736;28;20036;-63
2020/12/24 00:07:18;;;;;;;13.85;2.17;;;9.50;99.90;;;;;;5093398;28;20035;-62
2020/12/24 00:09:46;;;;;;;6.03;1.35;;;9.50;99.90;;;;;;5091888;28;20019;-63
2020/12/24 00:12:13;;;;;;;8.93;1.63;;;9.40;99.90;;;;;;5069888;28;20071;-63
2020/12/24 00:14:39;;;;;;;16.65;1.70;;;9.20;99.90;;;;;;5083453;28;20623;-63
2020/12/24 00:17:05;;;;;;;23.45;1.90;;;9.20;99.90;;;;;;5104138;28;20028;-63
2020/12/24 00:19:30;;;;;;;15.70;1.95;;;9.20;99.90;;;;;;5105435;28;20525;-63
2020/12/24 00:21:56;;;;;;;11.27;2.13;;;9.20;99.90;;;;;;5096793;28;20072;-62
2020/12/24 00:24:21;;;;;;;15.70;1.67;;;9.10;99.90;;;;;;5090068;28;20514;-61
2020/12/24 00:26:47;;;;;;;18.15;2.85;;;9.10;99.90;;;;;;5103512;28;20123;-61
2020/12/24 00:29:12;;;;;;;17.58;1.90;;;9.10;99.90;;;;;;5076343;28;20067;-62
2020/12/24 00:31:38;;;;;;;13.05;1.70;;;9.10;99.90;;;;;;5103803;28;20099;-61
2020/12/24 00:34:05;;;;;;;13.90;1.95;;;9.10;99.90;;;;;;5096861;28;20038;-63
2020/12/24 00:36:31;;;;;;;11.27;1.70;;;9.00;99.90;;;;;;5101198;28;20027;-63
2020/12/24 00:38:57;;;;;;;13.40;1.92;;;8.90;99.90;;;;;;5097984;28;20372;-62
2020/12/24 00:41:23;;;;;;;9.23;1.40;;;8.90;99.90;;;;;;5112070;28;20035;-63
2020/12/24 00:43:49;;;;;;;13.57;2.22;;;8.90;99.90;;;;;;5106071;28;20029;-62
2020/12/24 00:46:15;;;;;;;19.15;1.77;;;8.90;99.90;;;;;;5091690;28;20423;-62
2020/12/24 00:48:40;;;;;;;9.38;1.80;;;9.00;99.90;;;;;;5102398;28;20032;-63
2020/12/24 00:51:59;;;;;;;10.45;1.80;;;9.10;99.90;;;;;;5098427;28;20096;-62
2020/12/24 00:54:25;;;;;;;10.40;1.80;;;9.20;99.90;;;;;;5065005;28;20505;-63
2020/12/24 00:56:50;;;;;;;18.02;2.72;;;9.20;99.90;;;;;;5098808;28;20034;-62
2020/12/24 00:59:16;;;;;;;9.05;1.70;;;9.20;99.90;;;;;;5091574;28;20020;-63
2020/12/24 01:01:41;;;;;;;17.35;4.20;;;9.30;99.90;;;;;;5105847;28;20486;-63
2020/12/24 01:04:07;;;;;;;9.68;1.85;;;9.30;99.90;;;;;;5099092;28;20379;-63
2020/12/24 01:06:32;;;;;;;11.95;1.88;;;9.30;99.90;;;;;;5091596;28;20084;-63
2020/12/24 01:08:59;;;;;;;11.80;1.75;;;9.30;99.90;;;;;;5069904;28;20033;-63
2020/12/24 01:11:28;;;;;;;15.25;2.47;;;9.30;99.90;;;;;;5068316;28;20028;-63
2020/12/24 01:13:54;;;;;;;12.98;1.95;;;9.30;99.90;;;;;;5088589;28;20040;-63
2020/12/24 01:16:20;;;;;;;14.63;2.53;;;9.30;99.90;;;;;;5070139;28;20594;-63
2020/12/24 01:18:46;;;;;;;12.07;1.77;;;9.20;99.90;;;;;;5068269;28;20495;-61
2020/12/24 01:21:12;;;;;;;21.38;3.30;;;9.30;99.90;;;;;;5079309;28;20500;-63
2020/12/24 01:23:37;;;;;;;17.50;1.88;;;9.30;99.90;;;;;;5092016;28;20024;-61
2020/12/24 01:26:05;;;;;;;14.23;1.77;;;9.20;99.90;;;;;;5092845;28;20032;-62
2020/12/24 01:28:30;;;;;;;14.27;1.88;;;9.20;99.90;;;;;;5092329;28;20016;-63
2020/12/24 01:30:56;;;;;;;16.70;2.42;;;9.20;99.90;;;;;;5092363;28;20490;-60
2020/12/24 01:33:21;;;;;;;14.77;1.95;;;9.20;99.90;;;;;;5092746;28;20028;-61
2020/12/24 01:35:47;;;;;;;13.18;1.77;;;9.20;99.90;;;;;;5093946;28;20036;-62
2020/12/24 01:38:12;;;;;;;17.10;4.03;;;9.20;99.90;;;;;;5092614;28;20481;-63
2020/12/24 01:40:38;;;;;;;21.58;3.33;;;9.10;99.90;;;;;;5092224;28;20052;-63
2020/12/24 01:43:03;;;;;;;23.15;2.53;;;9.10;99.90;;;;;;5091927;28;20034;-63
2020/12/24 01:45:30;;;;;;;18.23;2.15;;;9.10;99.90;;;;;;5075623;28;20475;-62
2020/12/24 01:47:56;;;;;;;8.85;1.75;;;9.10;99.90;;;;;;5106848;28;20088;-62
2020/12/24 01:50:21;;;;;;;11.73;2.40;;;9.10;99.90;;;;;;5105182;28;20802;-63
2020/12/24 01:52:48;;;;;;;9.23;1.73;;;9.10;99.90;;;;;;5091808;28;20482;-63
2020/12/24 01:55:14;;;;;;;11.95;2.05;;;9.00;99.90;;;;;;5091953;28;20028;-62
2020/12/24 01:57:40;;;;;;;13.15;2.03;;;9.00;99.90;;;;;;5090083;28;20437;-63
2020/12/24 02:00:10;;;;;;;11.75;2.00;;;9.00;99.90;;;;;;5096526;28;20020;-62
2020/12/24 02:02:36;;;;;;;9.55;1.88;;;8.90;99.90;;;;;;5103118;28;20474;-63
2020/12/24 02:05:02;;;;;;;14.20;2.50;;;8.80;99.90;;;;;;5076040;28;20372;-63
2020/12/24 02:07:27;;;;;;;17.35;2.28;;;8.90;99.90;;;;;;5087918;28;20041;-63
2020/12/24 02:09:53;;;;;;;17.42;2.10;;;8.80;99.90;;;;;;5104736;28;20089;-62
2020/12/24 02:12:19;;;;;;;16.17;2.47;;;8.80;99.90;;;;;;5091612;28;20020;-61
2020/12/24 02:14:45;;;;;;;9.20;1.67;;;8.80;99.90;;;;;;5093775;28;20032;-62
2020/12/24 02:17:12;;;;;;;24.00;4.30;;;8.70;99.90;;;;;;5111176;28;20386;-61
2020/12/24 02:19:40;;;;;;;23.40;4.20;;;8.80;99.90;;;;;;5105141;27;20498;-62
2020/12/24 02:22:06;;;;;;;14.05;3.10;;;8.90;99.90;;;;;;5102188;28;20036;-62
2020/12/24 02:24:32;;;;;;;9.23;1.80;;;8.90;99.90;;;;;;5111665;28;20395;-61
2020/12/24 02:26:58;;;;;;;14.15;2.42;;;8.90;99.90;;;;;;5094366;27;20041;-62
2020/12/24 02:29:24;;;;;;;15.60;3.20;;;8.90;99.90;;;;;;5071247;28;20039;-62
2020/12/24 02:31:50;;;;;;;11.05;2.03;;;8.90;99.90;;;;;;5078587;28;20487;-61
2020/12/24 02:34:15;;;;;;;17.90;2.67;;;8.90;99.90;;;;;;5080479;28;20122;-61
2020/12/24 02:36:41;;;;;;;8.80;1.80;;;9.00;99.90;;;;;;5091187;28;20119;-61
2020/12/24 02:39:07;;;;;;;13.98;2.30;;;8.90;99.90;;;;;;5086375;28;20039;-62
2020/12/24 02:41:32;;;;;;;12.82;2.60;;;9.00;99.90;;;;;;5091068;28;20024;-62
2020/12/24 02:43:58;;;;;;;8.30;1.80;;;9.00;99.90;;;;;;5090910;28;20519;-62
2020/12/24 02:46:23;;;;;;;16.10;2.63;;;9.00;99.90;;;;;;5111279;28;20057;-63
2020/12/24 02:48:49;;;;;;;18.48;2.53;;;9.00;99.90;;;;;;5083297;28;20020;-63
2020/12/24 02:51:15;;;;;;;15.25;2.47;;;9.00;99.90;;;;;;5071025;28;20052;-63
2020/12/24 02:53:40;;;;;;;17.80;2.88;;;8.90;99.90;;;;;;5072014;28;20028;-63
2020/12/24 02:56:06;;;;;;;13.60;2.28;;;9.00;99.90;;;;;;5069861;28;20025;-61
2020/12/24 02:58:31;;;;;;;12.80;2.67;;;9.00;99.90;;;;;;5104203;28;20032;-62
2020/12/24 03:00:57;;;;;;;12.98;3.25;;;9.00;99.90;;;;;;5110912;28;20035;-62
2020/12/24 03:03:26;;;;;;;19.98;2.85;;;9.00;99.90;;;;;;5094832;28;20029;-62
2020/12/24 03:05:52;;;;;;;15.88;4.60;;;9.10;99.90;;;;;;5084023;28;20028;-63
2020/12/24 03:08:18;;;;;;;15.15;3.45;;;9.00;99.90;;;;;;5090552;28;20039;-62
2020/12/24 03:10:44;;;;;;;14.38;1.90;;;8.90;99.90;;;;;;5097021;28;20020;-63
2020/12/24 03:13:10;;;;;;;11.45;2.10;;;9.00;99.90;;;;;;5110542;28;20038;-63
2020/12/24 03:15:35;;;;;;;14.90;2.05;;;9.00;99.90;;;;;;5105123;28;20028;-63
2020/12/24 03:18:01;;;;;;;10.07;1.90;;;9.00;99.90;;;;;;5110382;28;20067;-63
2020/12/24 03:20:26;;;;;;;15.80;2.60;;;9.00;99.90;;;;;;5111009;28;20035;-63
2020/12/24 03:22:52;;;;;;;14.80;2.00;;;9.00;99.90;;;;;;5110497;28;20077;-63
2020/12/24 03:25:18;;;;;;;12.95;2.10;;;9.00;99.90;;;;;;5089404;28;20039;-63
2020/12/24 03:27:43;;;;;;;10.07;1.73;;;9.00;99.90;;;;;;5101740;28;20031;-63
2020/12/24 03:30:10;;;;;;;20.40;2.38;;;9.10;99.90;;;;;;5081009;28;20036;-63
2020/12/24 03:32:36;;;;;;;11.18;1.90;;;9.10;99.90;;;;;;5069777;28;20115;-63
2020/12/24 03:35:03;;;;;;;16.58;2.40;;;9.10;99.90;;;;;;5074845;28;20021;-63
2020/12/24 03:37:29;;;;;;;11.45;1.95;;;9.10;99.90;;;;;;5109071;28;20039;-63
2020/12/24 03:39:55;;;;;;;10.07;1.35;;;9.00;99.90;;;;;;5089501;28;20424;-63
2020/12/24 03:42:20;;;;;;;16.08;2.60;;;9.00;99.90;;;;;;5089336;28;20479;-63
2020/12/24 03:44:46;;;;;;;8.90;1.58;;;9.00;99.90;;;;;;5089740;28;20099;-63
2020/12/24 03:47:11;;;;;;;8.88;2.10;;;9.00;99.90;;;;;;5089294;28;20032;-63
2020/12/24 03:49:37;;;;;;;17.58;2.95;;;9.00;99.90;;;;;;5089611;28;20034;-62
2020/12/24 03:52:02;;;;;;;17.75;2.38;;;9.00;99.90;;;;;;5107310;28;20023;-61
2020/12/24 03:54:28;;;;;;;10.57;1.80;;;9.00;99.90;;;;;;5094777;28;20024;-63
2020/12/24 03:56:53;;;;;;;15.07;2.22;;;9.00;99.90;;;;;;5100073;28;20036;-62
2020/12/24 03:59:19;;;;;;;13.68;1.80;;;9.00;99.90;;;;;;5101842;28;20028;-62
2020/12/24 04:01:44;;;;;;;17.55;2.75;;;9.00;99.90;;;;;;5077517;28;20025;-63
2020/12/24 04:04:10;;;;;;;10.02;2.28;;;9.00;99.90;;;;;;5108308;28;20027;-63
2020/12/24 04:06:35;;;;;;;14.27;1.95;;;9.00;99.90;;;;;;5105707;28;20067;-64
2020/12/24 04:09:01;;;;;;;17.15;2.83;;;9.00;99.90;;;;;;5082930;28;20035;-64
2020/12/24 04:11:26;;;;;;;10.90;1.60;;;9.00;99.90;;;;;;5109753;28;20042;-62
2020/12/24 04:13:52;;;;;;;11.55;1.90;;;9.00;99.90;;;;;;5108982;28;20050;-63
2020/12/24 04:16:22;;;;;;;8.95;1.77;;;9.00;99.90;;;;;;5100799;28;20028;-63
2020/12/24 04:18:47;;;;;;;14.18;2.15;;;9.00;99.90;;;;;;5088450;28;20032;-63
2020/12/24 04:21:13;;;;;;;14.77;2.17;;;9.00;99.90;;;;;;5089105;28;20449;-63
2020/12/24 04:23:39;;;;;;;10.27;1.60;;;9.00;99.90;;;;;;5089445;28;20016;-63
2020/12/24 04:26:04;;;;;;;10.10;2.42;;;9.00;99.90;;;;;;5088825;28;20116;-63
2020/12/24 04:28:30;;;;;;;14.35;2.30;;;8.90;99.90;;;;;;5088614;28;20020;-62
2020/12/24 04:30:55;;;;;;;12.10;1.92;;;8.90;99.90;;;;;;5089047;28;20024;-63
2020/12/24 04:33:21;;;;;;;13.60;2.13;;;8.90;99.90;;;;;;5089315;28;20024;-63
2020/12/24 04:35:47;;;;;;;19.65;2.40;;;8.90;99.90;;;;;;5109134;28;20023;-63
2020/12/24 04:38:13;;;;;;;9.95;1.90;;;8.90;99.90;;;;;;5109034;28;20394;-63
2020/12/24 04:40:38;;;;;;;12.20;1.65;;;8.90;99.90;;;;;;5093527;28;20017;-62
2020/12/24 04:43:04;;;;;;;13.77;2.03;;;8.80;99.90;;;;;;5093418;28;20024;-63
2020/12/24 04:45:34;;;;;;;14.07;2.20;;;8.80;99.90;;;;;;5087063;28;20017;-63
2020/12/24 04:47:59;;;;;;;8.73;1.70;;;8.70;99.90;;;;;;5069042;28;20391;-63
2020/12/24 04:50:27;;;;;;;14.32;3.28;;;8.70;99.90;;;;;;5069236;28;20024;-63
2020/12/24 04:52:55;;;;;;;12.20;1.33;;;8.60;99.90;;;;;;5068260;28;20032;-63
2020/12/24 04:55:20;;;;;;;17.83;1.98;;;8.70;99.90;;;;;;5068093;28;20071;-62
2020/12/24 04:57:48;;;;;;;16.77;1.88;;;8.60;99.90;;;;;;5108411;28;20111;-62
2020/12/24 05:00:15;;;;;;;8.52;1.63;;;8.60;99.90;;;;;;5094385;28;20403;-62
2020/12/24 05:02:41;;;;;;;10.00;1.67;;;8.40;99.90;;;;;;5093062;28;20117;-63
2020/12/24 05:05:06;;;;;;;11.68;1.77;;;8.50;99.90;;;;;;5092665;28;20518;-63
2020/12/24 05:07:32;;;;;;;9.90;1.50;;;8.40;99.90;;;;;;5092659;28;20032;-63
2020/12/24 05:09:57;;;;;;;12.60;2.85;;;8.50;99.90;;;;;;5098628;28;20094;-63
2020/12/24 05:12:28;;;;;;;13.35;2.20;;;8.50;99.90;;;;;;5113033;28;20031;-63
2020/12/24 05:14:53;;;;;;;14.90;1.55;;;8.50;99.90;;;;;;5093871;28;20039;-62
2020/12/24 05:17:22;;;;;;;16.55;1.77;;;8.60;99.90;;;;;;5092363;28;20024;-63
2020/12/24 05:20:03;;;;;;;8.27;1.92;;;8.60;99.90;;;;;;5101190;28;20028;-62
2020/12/24 05:22:28;;;;;;;11.63;2.05;;;8.70;99.90;;;;;;5112801;28;20027;-62
2020/12/24 05:25:06;;;;;;;15.75;1.85;;;8.70;99.90;;;;;;5112746;28;20020;-63
2020/12/24 05:27:32;;;;;;;13.07;1.70;;;8.70;99.90;;;;;;5093896;28;20103;-62
2020/12/24 05:29:58;;;;;;;8.95;1.27;;;8.70;99.90;;;;;;5092310;28;20024;-63
2020/12/24 05:32:28;;;;;;;11.63;1.30;;;8.70;99.90;;;;;;5092222;28;20024;-63
2020/12/24 05:35:11;;;;;;;8.30;1.38;;;8.80;99.90;;;;;;5093355;28;20034;-63
2020/12/24 05:37:37;;;;;;;11.88;2.10;;;8.70;99.90;;;;;;5081901;28;20095;-62
2020/12/24 05:40:22;;;;;;;10.15;1.52;;;8.70;99.90;;;;;;5093381;28;20097;-63
2020/12/24 05:42:56;;;;;;;12.73;2.22;;;8.70;99.90;;;;;;5074234;28;20024;-63
2020/12/24 05:45:25;;;;;;;10.77;2.47;;;8.70;99.90;;;;;;5072411;28;20125;-63
2020/12/24 05:48:10;;;;;;;11.10;1.45;;;8.70;99.90;;;;;;5112403;28;20061;-62
2020/12/24 05:50:37;;;;;;;10.15;2.03;;;8.70;99.90;;;;;;5103770;28;20035;-62
2020/12/24 05:53:06;;;;;;;10.95;1.55;;;8.70;99.90;;;;;;5091455;28;20565;-63
2020/12/24 05:55:32;;;;;;;7.00;1.30;;;8.70;99.90;;;;;;5086386;28;20379;-63
2020/12/24 05:57:59;;;;;;;13.02;1.20;;;8.60;99.90;;;;;;5072560;28;20036;-63
2020/12/24 06:00:33;;;;;;;9.00;1.63;;;8.70;99.90;;;;;;5076976;28;20035;-63
2020/12/24 06:03:08;;;;;;;6.93;1.30;;;8.70;99.90;;;;;;5109870;28;20022;-63
2020/12/24 06:05:57;;;;;;;13.35;1.60;;;8.70;99.90;;;;;;5111896;28;20039;-62
2020/12/24 06:08:28;;;;;;;7.10;1.67;;;8.70;99.90;;;;;;5106633;28;20667;-63
2020/12/24 06:11:02;;;;;;;11.32;1.63;;;8.70;99.90;;;;;;5100517;28;20023;-63
2020/12/24 06:13:45;;;;;;;5.50;1.30;;;8.70;99.90;;;;;;5085180;28;20036;-61
2020/12/24 06:16:14;;;;;;;8.98;1.80;;;8.70;99.90;;;;;;5071679;28;20033;-61
2020/12/24 06:18:41;;;;;;;3.90;1.55;;;8.60;99.90;;;;;;5076788;28;20378;-63
2020/12/24 06:21:16;;;;;;;7.85;1.30;;;8.60;99.90;;;;;;5091351;28;20389;-63
2020/12/24 06:23:45;;;;;;;9.38;1.58;;;8.50;99.90;;;;;;5083773;28;20028;-63
2020/12/24 06:26:17;;;;;;;4.18;1.05;;;8.50;99.90;;;;;;5092998;28;20079;-63
2020/12/24 06:28:43;;;;;;;8.77;1.63;;;8.50;99.90;;;;;;5101878;28;20052;-63
2020/12/24 06:31:11;;;;;;;14.45;1.35;;;8.40;99.90;;;;;;5091499;28;20048;-63
2020/12/24 06:33:37;;;;;;;10.18;1.75;;;8.40;99.90;;;;;;5091090;28;20023;-63
2020/12/24 06:36:02;;;;;;;9.52;1.38;;;8.40;99.90;;;;;;5091189;28;20031;-63
2020/12/24 06:38:46;;;;;;;10.98;2.10;;;8.40;99.90;;;;;;5091071;28;20028;-62
2020/12/24 06:41:26;;;;;;;11.20;1.33;;;8.30;99.90;;;;;;5095767;28;20543;-63
2020/12/24 06:43:52;;;;;;;7.32;1.27;;;8.30;99.90;;;;;;5107398;28;20047;-62
2020/12/24 06:46:18;;;;;;;10.90;1.30;;;8.30;99.90;;;;;;5095934;28;20054;-63
2020/12/24 06:49:05;;;;;;;7.00;1.70;;;8.30;99.90;;;;;;5090881;28;20028;-62
2020/12/24 06:51:49;;;;;;;5.15;0.73;;;8.30;99.90;;;;;;5091143;28;20028;-63
2020/12/24 06:54:26;;;;;;;9.00;1.00;;;8.30;99.90;;;;;;5090293;28;20027;-63
2020/12/24 06:57:19;;;;;;;4.07;1.45;;;8.30;99.90;;;;;;5090643;28;20496;-63
2020/12/24 06:59:45;;;;;;;4.70;0.90;;;8.20;99.90;;;;;;5101882;28;20024;-63
2020/12/24 07:02:24;;;;;;;7.05;1.45;;;8.30;99.90;;;;;;5105174;28;20021;-62
2020/12/24 07:04:49;;;;;;;3.63;1.00;;;8.30;99.90;;;;;;5072416;28;20022;-62
2020/12/24 07:07:41;;;;;;;5.45;1.10;;;8.30;99.90;;;;;;5090027;28;20028;-63
2020/12/24 07:10:07;;;;;;;8.45;1.05;;;8.30;99.90;;;;;;5097799;28;20042;-63
2020/12/24 07:12:34;;;;;;;4.35;0.88;;;8.30;99.90;;;;;;5110574;28;20114;-63
2020/12/24 07:15:19;;;;;;;5.10;0.90;;;8.40;99.90;;;;;;5107434;28;20539;-63
2020/12/24 07:17:45;;;;;;;5.07;1.00;;;8.40;99.90;;;;;;5069348;28;20432;-63
2020/12/24 07:20:15;;;;;;;5.13;1.20;;;8.40;99.90;;;;;;5069474;28;20095;-63
2020/12/24 07:22:43;;;;;;;3.10;1.10;;;8.40;99.90;;;;;;5085208;28;20068;-63
2020/12/24 07:25:09;;;;;;;13.02;1.05;;;8.40;99.90;;;;;;5106309;28;20033;-63
2020/12/24 07:27:49;;;;;;;6.47;0.80;;;8.40;99.90;;;;;;5090103;28;20052;-63
2020/12/24 07:30:14;;;;;;;3.20;0.80;;;8.50;99.90;;;;;;5084266;28;20040;-62
2020/12/24 07:32:41;;;;;;;3.55;1.05;;;8.50;99.90;;;;;;5069781;28;20032;-63
2020/12/24 07:35:07;;;;;;;7.80;1.23;;;8.50;99.90;;;;;;5077964;28;20070;-63
2020/12/24 07:37:34;;;;;;;1.95;0.88;;;8.50;99.90;;;;;;5089756;28;20077;-63
2020/12/24 07:40:00;;;;;;;4.90;1.05;;;8.40;99.90;;;;;;5089943;28;20024;-63
2020/12/24 07:42:26;;;;;;;4.93;1.10;;;8.40;99.90;;;;;;5089719;28;20038;-63
2020/12/24 07:44:52;;;;;;;8.27;1.25;;;8.40;99.90;;;;;;5084887;28;20039;-63
2020/12/24 07:47:18;;;;;;;3.90;0.80;;;8.30;99.90;;;;;;5069154;28;20387;-63
2020/12/24 07:49:50;;;;;;;3.58;0.73;;;8.30;99.90;;;;;;5096169;28;20081;-63
2020/12/24 07:52:16;;;;;;;5.07;1.02;;;8.30;99.90;;;;;;5109905;28;20105;-63
2020/12/24 07:54:42;;;;;;;5.13;1.20;;;8.40;99.90;;;;;;5091477;28;20028;-63
2020/12/24 07:57:08;;;;;;;2.30;0.60;;;8.40;99.90;;;;;;5089599;28;20028;-62
2020/12/24 07:59:33;;;;;;;3.30;0.47;;;8.40;99.90;;;;;;5086264;28;20031;-63
2020/12/24 08:02:03;;;;;;;5.65;0.70;;;8.40;99.90;;;;;;5080830;28;20967;-62
2020/12/24 08:04:29;;;;;;;4.60;0.70;;;8.40;99.90;;;;;;5104983;28;20108;-63
2020/12/24 08:06:54;;;;;;;2.53;0.60;;;8.50;99.90;;;;;;5088818;28;20487;-62
2020/12/24 08:09:20;;;;;;;1.67;0.60;;;8.50;99.90;;;;;;5079697;28;20036;-64
2020/12/24 08:11:56;;;;;;;2.50;0.70;;;8.50;99.90;;;;;;5071979;28;20558;-62
2020/12/24 08:14:29;;;;;;;5.20;0.60;;;8.50;99.90;;;;;;5075982;28;20027;-62
2020/12/24 08:17:11;;;;;;;1.63;0.60;;;8.40;99.90;;;;;;5092419;28;20023;-62
2020/12/24 08:19:48;;;;;;;2.95;0.60;;;8.40;99.90;;;;;;5083889;28;20093;-62
2020/12/24 08:22:25;;;;;;;4.03;0.75;;;8.30;99.90;;;;;;5075853;28;20039;-63
2020/12/24 08:24:52;;;;;;;4.80;0.80;;;8.30;99.90;;;;;;5080639;28;20037;-62
2020/12/24 08:27:18;;;;;;;2.22;0.75;;;8.30;99.90;;;;;;5109305;28;20104;-63
2020/12/24 08:29:45;;;;;;;2.25;0.60;;;8.30;99.90;;;;;;5084697;28;20036;-63
2020/12/24 08:32:11;;;;;;;2.53;0.77;;;8.30;99.90;;;;;;5068005;28;20029;-63
2020/12/24 08:34:37;;;;;;;3.42;0.52;;;8.30;99.90;;;;;;5078876;28;20028;-63
2020/12/24 08:37:02;;;;;;;7.15;0.93;;;8.30;99.90;;;;;;5097608;28;20042;-63
2020/12/24 08:39:29;;;;;;;4.80;0.85;;;8.30;99.90;;;;;;5084073;28;20051;-63
2020/12/24 08:41:58;;;;;;;4.13;0.70;;;8.40;99.90;;;;;;5070264;28;20032;-63
2020/12/24 08:44:25;;;;;;;2.50;0.65;;;8.30;99.90;;;;;;5075978;28;20647;-63
2020/12/24 08:47:10;;;;;;;3.22;0.73;;;8.30;99.90;;;;;;5083501;28;20028;-63
2020/12/24 08:49:41;;;;;;;1.10;0.70;;;8.30;99.90;;;;;;5079294;28;20024;-63
2020/12/24 08:52:33;;;;;;;1.98;0.60;;;8.30;99.90;;;;;;5068429;28;20148;-63
2020/12/24 08:55:01;;;;;;;0.95;0.50;;;8.30;99.90;;;;;;5071456;28;20067;-63
2020/12/24 08:57:27;;;;;;;4.43;0.70;;;8.30;99.90;;;;;;5074660;28;20028;-63
2020/12/24 09:00:00;;;;;;;2.92;0.68;;;8.30;99.90;;;;;;5077732;28;20051;-62
2020/12/24 09:02:29;;;;;;;4.22;0.70;;;8.40;99.90;;;;;;5071194;28;20098;-63
2020/12/24 09:04:59;;;;;;;2.47;0.70;;;8.40;99.90;;;;;;5070219;28;20024;-63
2020/12/24 09:07:29;;;;;;;1.48;0.50;;;8.50;99.90;;;;;;5077061;28;20024;-63
2020/12/24 09:10:15;;;;;;;1.55;0.75;;;8.50;99.90;;;;;;5074527;28;20024;-63
2020/12/24 09:12:43;;;;;;;4.03;0.70;;;8.50;99.90;;;;;;5078321;28;20733;-63
2020/12/24 09:15:11;;;;;;;3.20;0.70;;;8.50;99.90;;;;;;5086495;28;20085;-63
2020/12/24 09:17:47;;;;;;;2.78;1.13;;;8.50;99.90;;;;;;5068372;28;20035;-63
2020/12/24 09:20:13;;;;;;;5.13;0.90;;;8.50;99.90;;;;;;5080796;28;20030;-64
2020/12/24 09:22:52;;;;;;;2.65;0.70;;;8.50;99.90;;;;;;5090804;28;20428;-63
2020/12/24 09:25:27;;;;;;;4.40;0.80;;;8.50;99.90;;;;;;5071210;28;20523;-63
2020/12/24 09:27:53;;;;;;;5.38;1.00;;;8.50;99.90;;;;;;5067658;28;20040;-64
2020/12/24 09:30:18;;;;;;;6.80;2.60;;;8.50;99.90;;;;;;5068089;28;20028;-62
2020/12/24 09:32:52;;;;;;;2.00;1.20;;;8.50;99.90;;;;;;5069205;28;20452;-62
2020/12/24 09:35:17;;;;;;;4.22;2.63;;;8.40;99.90;;;;;;5066961;28;20036;-63
2020/12/24 09:37:42;;;;;;;9.05;1.75;;;8.40;99.90;;;;;;5086689;28;20073;-63
2020/12/24 09:40:08;;;;;;;6.22;1.90;;;8.40;99.90;;;;;;5085758;28;20108;-63
2020/12/24 09:42:33;;;;;;;6.93;1.75;;;8.30;99.90;;;;;;5074709;28;20032;-63
2020/12/24 09:44:59;;;;;;;10.40;2.55;;;8.30;99.90;;;;;;5071069;28;20036;-62
2020/12/24 09:47:24;;;;;;;9.80;2.20;;;8.30;99.90;;;;;;5076870;28;20024;-62
2020/12/24 09:49:50;;;;;;;9.15;2.50;;;8.30;99.90;;;;;;5080923;28;20387;-63
2020/12/24 09:52:15;;;;;;;5.75;2.63;;;8.30;99.90;;;;;;5090272;28;20036;-63
2020/12/24 09:54:41;;;;;;;5.93;3.85;;;8.20;99.90;;;;;;5072155;28;20442;-63
2020/12/24 09:57:06;;;;;;;7.93;3.65;;;8.20;99.90;;;;;;5077033;28;20491;-60
2020/12/24 09:59:32;;;;;;;4.28;3.58;;;8.10;99.90;;;;;;5081488;28;20078;-59
2020/12/24 10:01:57;;;;;;;7.35;4.65;;;8.00;99.90;;;;;;5080204;28;20073;-60
2020/12/24 10:04:23;;;;;;;5.80;3.70;;;7.90;99.90;;;;;;5083394;28;20024;-59
2020/12/24 10:06:49;;;;;;;7.15;3.47;;;7.80;99.90;;;;;;5101318;28;20478;-60
2020/12/24 10:09:15;;;;;;;3.55;2.75;;;7.70;99.90;;;;;;5092042;28;20032;-60
2020/12/24 10:11:45;;;;;;;8.32;2.88;;;7.70;99.90;;;;;;5103155;28;20039;-60
2020/12/24 10:14:10;;;;;;;3.92;2.30;;;7.60;99.90;;;;;;5089530;28;20035;-60
2020/12/24 10:16:36;;;;;;;3.33;2.28;;;7.50;99.90;;;;;;5077563;28;20020;-60
2020/12/24 10:19:01;;;;;;;1.95;1.77;;;7.40;99.90;;;;;;5088279;28;20482;-60
2020/12/24 10:21:27;;;;;;;2.75;1.88;;;7.30;99.90;;;;;;5092473;28;20055;-58
2020/12/24 10:23:53;;;;;;;3.97;1.60;;;7.30;99.90;;;;;;5086240;28;20035;-60
2020/12/24 10:26:20;;;;;;;1.85;1.02;;;7.30;99.90;;;;;;5089204;28;20032;-60
2020/12/24 10:28:46;;;;;;;2.25;1.27;;;7.30;99.90;;;;;;5083287;28;20096;-59
2020/12/24 10:31:12;;;;;;;1.70;1.08;;;7.30;99.90;;;;;;5087628;28;20064;-60
2020/12/24 10:33:37;;;;;;;3.22;1.00;;;7.30;99.90;;;;;;5098536;28;20032;-59
2020/12/24 10:36:03;;;;;;;3.47;0.95;;;7.30;99.90;;;;;;5088134;28;20035;-60
2020/12/24 10:38:29;;;;;;;1.27;0.80;;;7.30;99.90;;;;;;5082317;28;20055;-60
2020/12/24 10:40:55;;;;;;;0.98;0.70;;;7.30;99.90;;;;;;5079114;28;20082;-58
2020/12/24 10:43:21;;;;;;;0.70;0.70;;;7.20;99.90;;;;;;5070688;28;20468;-59
2020/12/24 10:45:47;;;;;;;1.70;0.80;;;7.10;99.90;;;;;;5079026;28;20035;-59
2020/12/24 10:48:13;;;;;;;0.82;0.80;;;7.10;99.90;;;;;;5094725;28;20031;-58
2020/12/24 10:50:38;;;;;;;1.10;1.00;;;7.20;99.90;;;;;;5086078;28;20024;-59
2020/12/24 10:53:04;;;;;;;0.75;0.75;;;7.20;99.90;;;;;;5083615;28;20036;-58
2020/12/24 10:55:29;;;;;;;1.20;0.88;;;7.20;99.90;;;;;;5077467;28;20078;-58
2020/12/24 10:57:55;;;;;;;1.40;1.17;;;7.20;99.90;;;;;;5082366;28;20028;-59
2020/12/24 11:00:21;;;;;;;1.88;0.80;;;7.20;99.90;;;;;;5080448;28;20035;-57
2020/12/24 11:02:46;;;;;;;0.60;0.50;;;7.20;99.90;;;;;;5085609;28;20055;-59
2020/12/24 11:05:12;;;;;;;1.08;0.68;;;7.10;99.90;;;;;;5077768;28;20071;-57
2020/12/24 11:07:37;;;;;;;3.22;0.70;;;7.10;99.90;;;;;;5070140;28;20032;-57
2020/12/24 11:10:04;;;;;;;1.08;0.68;;;7.00;99.90;;;;;;5070347;28;20028;-59
2020/12/24 11:12:29;;;;;;;8.40;0.90;;;7.00;99.90;;;;;;5089550;28;20049;-59
2020/12/24 11:14:55;;;;;;;0.70;0.60;;;7.00;99.90;;;;;;5089295;28;20036;-59
2020/12/24 11:17:20;;;;;;;2.35;0.95;;;7.00;99.90;;;;;;5087658;28;20637;-60
2020/12/24 11:19:46;;;;;;;0.93;0.80;;;6.90;99.90;;;;;;5084082;28;20041;-59
2020/12/24 11:22:12;;;;;;;5.40;1.33;;;6.90;99.90;;;;;;5085282;28;20039;-59
2020/12/24 11:24:38;;;;;;;1.38;0.80;;;6.90;99.90;;;;;;5089623;28;20118;-59
2020/12/24 11:27:03;;;;;;;1.73;1.00;;;6.90;99.90;;;;;;5080001;28;20080;-59
2020/12/24 11:29:29;;;;;;;1.42;0.98;;;7.00;99.90;;;;;;5086719;28;20478;-60
2020/12/24 11:31:57;;;;;;;1.63;0.70;;;7.00;99.90;;;;;;5074379;28;20111;-60
2020/12/24 11:34:23;;;;;;;1.67;0.90;;;7.00;99.90;;;;;;5085371;28;20024;-57
2020/12/24 11:36:49;;;;;;;1.52;0.90;;;7.00;99.90;;;;;;5079690;28;20089;-58
2020/12/24 11:39:15;;;;;;;0.73;0.63;;;7.00;99.90;;;;;;5072816;28;20416;-60
2020/12/24 11:41:40;;;;;;;1.23;0.90;;;7.00;99.90;;;;;;5072099;28;20104;-60
2020/12/24 11:44:06;;;;;;;1.30;0.85;;;6.90;99.90;;;;;;5068957;28;20602;-60
2020/12/24 11:46:31;;;;;;;1.00;0.80;;;6.80;99.90;;;;;;5077117;28;20032;-58
2020/12/24 11:48:57;;;;;;;1.70;1.00;;;6.80;99.90;;;;;;5078660;28;20391;-59
2020/12/24 11:51:26;;;;;;;1.52;1.20;;;6.70;99.90;;;;;;5075676;28;20503;-59
2020/12/24 11:53:53;;;;;;;1.83;1.17;;;6.70;99.90;;;;;;5078012;28;20036;-60
2020/12/24 11:56:21;;;;;;;2.90;1.23;;;6.70;99.90;;;;;;5075441;28;20024;-59
2020/12/24 11:58:48;;;;;;;2.17;1.52;;;6.60;99.90;;;;;;5087910;28;20482;-59
2020/12/24 12:01:15;;;;;;;2.35;1.33;;;6.60;99.90;;;;;;5078771;28;20025;-60
2020/12/24 12:03:41;;;;;;;1.80;1.33;;;6.50;99.90;;;;;;5080937;28;20051;-57
2020/12/24 12:06:07;;;;;;;1.52;1.13;;;6.50;99.90;;;;;;5076273;28;20390;-58
2020/12/24 12:08:33;;;;;;;2.60;1.70;;;6.50;99.90;;;;;;5073750;28;20582;-57
2020/12/24 12:11:06;;;;;;;3.67;1.88;;;6.50;99.90;;;;;;5086561;28;20042;-58
2020/12/24 12:13:32;;;;;;;2.83;2.63;;;6.40;99.90;;;;;;5080479;28;20550;-59
2020/12/24 12:15:58;;;;;;;3.08;2.40;;;6.40;99.90;;;;;;5085090;28;20055;-59
2020/12/24 12:18:23;;;;;;;2.85;2.55;;;6.30;99.90;;;;;;5069372;28;20636;-60
2020/12/24 12:20:50;;;;;;;2.85;2.38;;;6.30;99.90;;;;;;5070906;28;20048;-60
2020/12/24 12:23:15;;;;;;;4.30;3.53;;;6.30;99.90;;;;;;5087481;28;20051;-58
2020/12/24 12:25:41;;;;;;;7.15;4.18;;;6.30;99.90;;;;;;5076546;28;20510;-61
2020/12/24 12:28:07;;;;;;;8.07;5.47;;;6.30;99.90;;;;;;5079821;28;20328;-60
2020/12/24 12:30:33;;;;;;;8.18;5.95;;;6.30;99.90;;;;;;5075526;28;20028;-60
2020/12/24 12:32:58;;;;;;;9.73;7.20;;;6.20;99.90;;;;;;5067721;28;20032;-60
2020/12/24 12:35:24;;;;;;;13.65;8.80;;;6.10;99.90;;;;;;5074725;28;20040;-60
2020/12/24 12:37:50;;;;;;;15.68;10.15;;;6.00;99.90;;;;;;5077327;28;20028;-61
2020/12/24 12:40:16;;;;;;;18.90;11.57;;;6.00;99.90;;;;;;5094245;28;20521;-60
2020/12/24 12:42:42;;;;;;;17.17;11.10;;;5.90;99.90;;;;;;5094388;28;20573;-61
2020/12/24 12:45:07;;;;;;;22.02;14.05;;;6.00;99.90;;;;;;5085650;28;20078;-59
2020/12/24 12:47:38;;;;;;;29.55;16.27;;;5.90;99.90;;;;;;5076186;28;20066;-60
2020/12/24 12:50:07;;;;;;;34.33;17.75;;;5.80;99.90;;;;;;5073480;28;20452;-58
2020/12/24 12:52:32;;;;;;;33.72;18.02;;;5.80;99.90;;;;;;5074370;28;20391;-59
2020/12/24 12:54:58;;;;;;;30.98;16.55;;;5.80;99.90;;;;;;5077929;28;20028;-61